Wishart, Canada
Current Conditions -  °F | °C
As of 7:25 AM on Sunday 21 Dec 2014 (Local Time) from CYQV Reporting Station
Haze Haze  
Wind Chill: 20°   Ceiling: 200
Heat Index: 28°   Visibility: 1.2mi
Dew Point: 27°   Wind: 8mph
Humidity: 93%   Direction: 170°S
Pressure: 29.51"   Gusts: NA
Location:  51.55°N, 103.98°W
Report Text: CYQV 211325Z AUTO 17007KT 1 1/4SM BR OVC002 M02/M03 A2951 RMK SLP022
Loading
Personal Weather Stations






























Interactive Weather Map New forecast layout! Learn more

10-Day Weather Forecast

Advertisements
Track Severe Weather on mobile